sensor_id;sensor_type;location;lat;lon;timestamp;P1;durP1;ratioP1;P2;durP2;ratioP2
17570;SDS011;8903;52.220;20.978;2023-03-31T00:01:58;16.70;;;13.60;;
17570;SDS011;8903;52.220;20.978;2023-03-31T00:04:26;18.00;;;14.17;;
17570;SDS011;8903;52.220;20.978;2023-03-31T00:06:56;16.10;;;13.30;;
17570;SDS011;8903;52.220;20.978;2023-03-31T00:09:23;17.20;;;14.80;;
17570;SDS011;8903;52.220;20.978;2023-03-31T00:11:51;17.77;;;13.30;;
17570;SDS011;8903;52.220;20.978;2023-03-31T00:14:19;15.97;;;13.43;;
17570;SDS011;8903;52.220;20.978;2023-03-31T00:16:46;17.90;;;14.43;;
17570;SDS011;8903;52.220;20.978;2023-03-31T00:19:13;17.47;;;13.60;;
17570;SDS011;8903;52.220;20.978;2023-03-31T00:21:44;16.87;;;13.43;;
17570;SDS011;8903;52.220;20.978;2023-03-31T00:24:12;13.93;;;12.50;;
17570;SDS011;8903;52.220;20.978;2023-03-31T00:26:40;17.43;;;12.80;;
17570;SDS011;8903;52.220;20.978;2023-03-31T00:29:10;15.30;;;12.90;;
17570;SDS011;8903;52.220;20.978;2023-03-31T00:31:38;15.27;;;12.63;;
17570;SDS011;8903;52.220;20.978;2023-03-31T00:34:06;18.10;;;13.80;;
17570;SDS011;8903;52.220;20.978;2023-03-31T00:36:33;15.77;;;13.83;;
17570;SDS011;8903;52.220;20.978;2023-03-31T00:39:11;17.10;;;13.00;;
17570;SDS011;8903;52.220;20.978;2023-03-31T00:41:40;16.13;;;14.27;;
17570;SDS011;8903;52.220;20.978;2023-03-31T00:44:10;19.13;;;13.20;;
17570;SDS011;8903;52.220;20.978;2023-03-31T00:46:43;14.77;;;12.37;;
17570;SDS011;8903;52.220;20.978;2023-03-31T00:49:17;14.57;;;12.30;;
17570;SDS011;8903;52.220;20.978;2023-03-31T00:51:50;13.60;;;11.93;;
17570;SDS011;8903;52.220;20.978;2023-03-31T00:54:20;16.80;;;12.40;;
17570;SDS011;8903;52.220;20.978;2023-03-31T00:56:50;17.70;;;12.10;;
17570;SDS011;8903;52.220;20.978;2023-03-31T00:59:24;13.83;;;11.90;;
17570;SDS011;8903;52.220;20.978;2023-03-31T01:01:54;14.53;;;12.20;;
17570;SDS011;8903;52.220;20.978;2023-03-31T01:04:27;14.33;;;11.60;;
17570;SDS011;8903;52.220;20.978;2023-03-31T01:07:00;14.00;;;11.20;;
17570;SDS011;8903;52.220;20.978;2023-03-31T01:09:33;15.60;;;11.50;;
17570;SDS011;8903;52.220;20.978;2023-03-31T01:12:04;12.40;;;10.90;;
17570;SDS011;8903;52.220;20.978;2023-03-31T01:14:34;13.67;;;11.53;;
17570;SDS011;8903;52.220;20.978;2023-03-31T01:17:02;16.60;;;11.60;;
17570;SDS011;8903;52.220;20.978;2023-03-31T01:19:33;12.37;;;10.70;;
17570;SDS011;8903;52.220;20.978;2023-03-31T01:25:47;14.70;;;11.37;;
17570;SDS011;8903;52.220;20.978;2023-03-31T01:28:36;14.10;;;11.93;;
17570;SDS011;8903;52.220;20.978;2023-03-31T01:31:34;15.30;;;11.40;;
17570;SDS011;8903;52.220;20.978;2023-03-31T01:34:23;19.23;;;12.70;;
17570;SDS011;8903;52.220;20.978;2023-03-31T01:43:04;15.47;;;11.97;;
17570;SDS011;8903;52.220;20.978;2023-03-31T01:45:37;13.37;;;11.17;;
17570;SDS011;8903;52.220;20.978;2023-03-31T01:48:13;15.40;;;12.00;;
17570;SDS011;8903;52.220;20.978;2023-03-31T01:50:44;13.70;;;12.27;;
17570;SDS011;8903;52.220;20.978;2023-03-31T01:53:15;14.80;;;12.33;;
17570;SDS011;8903;52.220;20.978;2023-03-31T01:55:50;14.50;;;11.93;;
17570;SDS011;8903;52.220;20.978;2023-03-31T01:58:28;13.77;;;12.10;;
17570;SDS011;8903;52.220;20.978;2023-03-31T02:01:01;13.57;;;12.13;;
17570;SDS011;8903;52.220;20.978;2023-03-31T02:03:39;14.10;;;12.60;;
17570;SDS011;8903;52.220;20.978;2023-03-31T02:06:12;13.80;;;11.17;;
17570;SDS011;8903;52.220;20.978;2023-03-31T02:08:47;14.03;;;12.00;;
17570;SDS011;8903;52.220;20.978;2023-03-31T02:11:19;13.47;;;11.17;;
17570;SDS011;8903;52.220;20.978;2023-03-31T02:13:48;15.47;;;12.27;;
17570;SDS011;8903;52.220;20.978;2023-03-31T02:16:18;12.13;;;10.93;;
17570;SDS011;8903;52.220;20.978;2023-03-31T02:18:50;14.43;;;11.10;;
17570;SDS011;8903;52.220;20.978;2023-03-31T02:21:26;12.30;;;11.03;;
17570;SDS011;8903;52.220;20.978;2023-03-31T02:23:54;13.30;;;11.90;;
17570;SDS011;8903;52.220;20.978;2023-03-31T02:26:24;13.13;;;11.73;;
17570;SDS011;8903;52.220;20.978;2023-03-31T02:28:55;13.10;;;11.90;;
17570;SDS011;8903;52.220;20.978;2023-03-31T02:31:25;13.60;;;12.20;;
17570;SDS011;8903;52.220;20.978;2023-03-31T02:33:58;16.23;;;10.97;;
17570;SDS011;8903;52.220;20.978;2023-03-31T02:36:25;14.80;;;12.40;;
17570;SDS011;8903;52.220;20.978;2023-03-31T02:38:54;15.20;;;11.10;;
17570;SDS011;8903;52.220;20.978;2023-03-31T02:41:27;14.07;;;12.67;;
17570;SDS011;8903;52.220;20.978;2023-03-31T02:43:55;16.00;;;12.60;;
17570;SDS011;8903;52.220;20.978;2023-03-31T02:46:22;15.23;;;12.77;;
17570;SDS011;8903;52.220;20.978;2023-03-31T02:48:51;15.03;;;10.80;;
17570;SDS011;8903;52.220;20.978;2023-03-31T02:51:29;15.47;;;11.73;;
17570;SDS011;8903;52.220;20.978;2023-03-31T02:54:22;12.03;;;10.83;;
17570;SDS011;8903;52.220;20.978;2023-03-31T02:57:15;17.33;;;11.53;;
17570;SDS011;8903;52.220;20.978;2023-03-31T02:59:54;12.30;;;11.03;;
17570;SDS011;8903;52.220;20.978;2023-03-31T03:02:39;14.43;;;12.97;;
17570;SDS011;8903;52.220;20.978;2023-03-31T03:05:21;13.00;;;11.60;;
17570;SDS011;8903;52.220;20.978;2023-03-31T03:08:24;14.90;;;13.00;;
17570;SDS011;8903;52.220;20.978;2023-03-31T03:10:59;12.73;;;10.87;;
17570;SDS011;8903;52.220;20.978;2023-03-31T03:13:34;13.90;;;12.23;;
17570;SDS011;8903;52.220;20.978;2023-03-31T03:16:09;13.67;;;11.60;;
17570;SDS011;8903;52.220;20.978;2023-03-31T03:18:43;13.53;;;12.13;;
17570;SDS011;8903;52.220;20.978;2023-03-31T03:21:10;13.43;;;12.03;;
17570;SDS011;8903;52.220;20.978;2023-03-31T03:23:37;13.53;;;12.13;;
17570;SDS011;8903;52.220;20.978;2023-03-31T03:26:04;14.30;;;11.80;;
17570;SDS011;8903;52.220;20.978;2023-03-31T03:28:31;15.10;;;13.20;;
17570;SDS011;8903;52.220;20.978;2023-03-31T03:30:59;14.63;;;13.13;;
17570;SDS011;8903;52.220;20.978;2023-03-31T03:33:26;17.13;;;12.63;;
17570;SDS011;8903;52.220;20.978;2023-03-31T03:35:53;12.73;;;11.43;;
17570;SDS011;8903;52.220;20.978;2023-03-31T03:38:20;16.17;;;13.23;;
17570;SDS011;8903;52.220;20.978;2023-03-31T03:40:51;14.47;;;12.10;;
17570;SDS011;8903;52.220;20.978;2023-03-31T03:43:19;18.13;;;13.20;;
17570;SDS011;8903;52.220;20.978;2023-03-31T03:45:46;15.50;;;13.37;;
17570;SDS011;8903;52.220;20.978;2023-03-31T03:48:14;18.80;;;13.40;;
17570;SDS011;8903;52.220;20.978;2023-03-31T03:50:41;13.80;;;12.13;;
17570;SDS011;8903;52.220;20.978;2023-03-31T03:53:10;16.30;;;12.83;;
17570;SDS011;8903;52.220;20.978;2023-03-31T03:55:37;22.00;;;15.67;;
17570;SDS011;8903;52.220;20.978;2023-03-31T03:58:04;17.33;;;13.87;;
17570;SDS011;8903;52.220;20.978;2023-03-31T04:00:31;16.93;;;14.23;;
17570;SDS011;8903;52.220;20.978;2023-03-31T04:02:58;14.33;;;12.83;;
17570;SDS011;8903;52.220;20.978;2023-03-31T04:05:27;16.20;;;14.03;;
17570;SDS011;8903;52.220;20.978;2023-03-31T04:07:54;17.13;;;14.57;;
17570;SDS011;8903;52.220;20.978;2023-03-31T04:10:21;19.33;;;13.33;;
17570;SDS011;8903;52.220;20.978;2023-03-31T04:12:48;19.20;;;13.60;;
17570;SDS011;8903;52.220;20.978;2023-03-31T04:15:15;20.43;;;15.17;;
17570;SDS011;8903;52.220;20.978;2023-03-31T04:17:42;20.83;;;15.37;;
17570;SDS011;8903;52.220;20.978;2023-03-31T04:20:15;18.47;;;14.57;;
17570;SDS011;8903;52.220;20.978;2023-03-31T04:22:44;17.37;;;14.13;;
17570;SDS011;8903;52.220;20.978;2023-03-31T04:25:15;15.37;;;13.57;;
17570;SDS011;8903;52.220;20.978;2023-03-31T04:27:42;18.50;;;15.03;;
17570;SDS011;8903;52.220;20.978;2023-03-31T04:30:11;19.13;;;16.77;;
17570;SDS011;8903;52.220;20.978;2023-03-31T04:32:47;21.17;;;15.13;;
17570;SDS011;8903;52.220;20.978;2023-03-31T04:35:15;19.67;;;14.77;;
17570;SDS011;8903;52.220;20.978;2023-03-31T04:37:46;24.30;;;17.40;;
17570;SDS011;8903;52.220;20.978;2023-03-31T04:40:13;23.77;;;16.97;;
17570;SDS011;8903;52.220;20.978;2023-03-31T04:42:41;21.27;;;16.50;;
17570;SDS011;8903;52.220;20.978;2023-03-31T04:45:08;19.33;;;15.33;;
17570;SDS011;8903;52.220;20.978;2023-03-31T04:47:36;20.13;;;16.20;;
17570;SDS011;8903;52.220;20.978;2023-03-31T04:50:03;20.10;;;15.47;;
17570;SDS011;8903;52.220;20.978;2023-03-31T04:52:31;21.40;;;16.27;;
17570;SDS011;8903;52.220;20.978;2023-03-31T04:54:59;21.47;;;15.30;;
17570;SDS011;8903;52.220;20.978;2023-03-31T04:57:26;20.37;;;15.53;;
17570;SDS011;8903;52.220;20.978;2023-03-31T04:59:53;27.80;;;16.60;;
17570;SDS011;8903;52.220;20.978;2023-03-31T05:02:20;22.47;;;19.00;;
17570;SDS011;8903;52.220;20.978;2023-03-31T05:04:48;19.73;;;16.20;;
17570;SDS011;8903;52.220;20.978;2023-03-31T05:07:15;23.67;;;16.73;;
17570;SDS011;8903;52.220;20.978;2023-03-31T05:09:43;23.90;;;16.40;;
17570;SDS011;8903;52.220;20.978;2023-03-31T05:12:11;21.43;;;16.90;;
17570;SDS011;8903;52.220;20.978;2023-03-31T05:14:38;21.77;;;17.27;;
17570;SDS011;8903;52.220;20.978;2023-03-31T05:17:06;20.90;;;17.17;;
17570;SDS011;8903;52.220;20.978;2023-03-31T05:19:33;21.40;;;18.20;;
17570;SDS011;8903;52.220;20.978;2023-03-31T05:22:00;31.93;;;19.33;;
17570;SDS011;8903;52.220;20.978;2023-03-31T05:24:27;25.73;;;17.83;;
17570;SDS011;8903;52.220;20.978;2023-03-31T05:26:54;24.30;;;17.07;;
17570;SDS011;8903;52.220;20.978;2023-03-31T05:29:23;19.80;;;17.50;;
17570;SDS011;8903;52.220;20.978;2023-03-31T05:31:50;25.90;;;18.00;;
17570;SDS011;8903;52.220;20.978;2023-03-31T05:34:18;25.97;;;18.17;;
17570;SDS011;8903;52.220;20.978;2023-03-31T05:36:45;24.00;;;19.00;;
17570;SDS011;8903;52.220;20.978;2023-03-31T05:39:14;21.87;;;18.63;;
17570;SDS011;8903;52.220;20.978;2023-03-31T05:41:42;22.70;;;18.83;;
17570;SDS011;8903;52.220;20.978;2023-03-31T05:44:09;23.77;;;17.80;;
17570;SDS011;8903;52.220;20.978;2023-03-31T05:46:37;22.50;;;18.50;;
17570;SDS011;8903;52.220;20.978;2023-03-31T05:49:05;21.63;;;17.80;;
17570;SDS011;8903;52.220;20.978;2023-03-31T05:51:32;21.63;;;17.10;;
17570;SDS011;8903;52.220;20.978;2023-03-31T05:53:59;25.40;;;19.23;;
17570;SDS011;8903;52.220;20.978;2023-03-31T05:56:26;22.27;;;15.60;;
17570;SDS011;8903;52.220;20.978;2023-03-31T05:58:54;22.97;;;18.47;;
17570;SDS011;8903;52.220;20.978;2023-03-31T06:01:20;27.27;;;18.90;;
17570;SDS011;8903;52.220;20.978;2023-03-31T06:03:50;28.33;;;20.73;;
17570;SDS011;8903;52.220;20.978;2023-03-31T06:06:17;23.97;;;20.03;;
17570;SDS011;8903;52.220;20.978;2023-03-31T06:08:44;29.17;;;19.60;;
17570;SDS011;8903;52.220;20.978;2023-03-31T06:11:13;22.77;;;20.07;;
17570;SDS011;8903;52.220;20.978;2023-03-31T06:13:41;25.37;;;19.97;;
17570;SDS011;8903;52.220;20.978;2023-03-31T06:16:08;28.73;;;21.63;;
17570;SDS011;8903;52.220;20.978;2023-03-31T06:18:36;22.93;;;19.33;;
17570;SDS011;8903;52.220;20.978;2023-03-31T06:21:05;23.37;;;18.13;;
17570;SDS011;8903;52.220;20.978;2023-03-31T06:23:32;22.77;;;19.90;;
17570;SDS011;8903;52.220;20.978;2023-03-31T06:26:00;22.00;;;18.20;;
17570;SDS011;8903;52.220;20.978;2023-03-31T06:28:27;20.53;;;17.63;;
17570;SDS011;8903;52.220;20.978;2023-03-31T06:31:01;23.27;;;18.80;;
17570;SDS011;8903;52.220;20.978;2023-03-31T06:33:28;25.13;;;17.43;;
17570;SDS011;8903;52.220;20.978;2023-03-31T06:35:55;22.93;;;17.30;;
17570;SDS011;8903;52.220;20.978;2023-03-31T06:38:25;22.83;;;16.27;;
17570;SDS011;8903;52.220;20.978;2023-03-31T06:40:52;23.03;;;18.20;;
17570;SDS011;8903;52.220;20.978;2023-03-31T06:43:19;25.30;;;18.03;;
17570;SDS011;8903;52.220;20.978;2023-03-31T06:45:46;21.97;;;17.30;;
17570;SDS011;8903;52.220;20.978;2023-03-31T06:48:13;21.00;;;17.47;;
17570;SDS011;8903;52.220;20.978;2023-03-31T06:50:40;21.13;;;18.93;;
17570;SDS011;8903;52.220;20.978;2023-03-31T06:53:07;25.20;;;18.20;;
17570;SDS011;8903;52.220;20.978;2023-03-31T06:55:36;24.73;;;19.23;;
17570;SDS011;8903;52.220;20.978;2023-03-31T06:58:03;24.03;;;18.07;;
17570;SDS011;8903;52.220;20.978;2023-03-31T07:00:30;24.57;;;19.30;;
17570;SDS011;8903;52.220;20.978;2023-03-31T07:02:58;21.27;;;18.33;;
17570;SDS011;8903;52.220;20.978;2023-03-31T07:05:25;21.50;;;18.00;;
17570;SDS011;8903;52.220;20.978;2023-03-31T07:07:53;26.67;;;19.20;;
17570;SDS011;8903;52.220;20.978;2023-03-31T07:10:21;26.00;;;18.83;;
17570;SDS011;8903;52.220;20.978;2023-03-31T07:12:50;21.57;;;18.13;;
17570;SDS011;8903;52.220;20.978;2023-03-31T07:15:17;22.60;;;17.93;;
17570;SDS011;8903;52.220;20.978;2023-03-31T07:17:44;22.60;;;18.10;;
17570;SDS011;8903;52.220;20.978;2023-03-31T07:20:15;25.10;;;17.60;;
17570;SDS011;8903;52.220;20.978;2023-03-31T07:22:43;23.07;;;17.07;;
17570;SDS011;8903;52.220;20.978;2023-03-31T07:25:12;19.87;;;17.50;;
17570;SDS011;8903;52.220;20.978;2023-03-31T07:27:42;24.67;;;18.47;;
17570;SDS011;8903;52.220;20.978;2023-03-31T07:30:12;22.73;;;17.40;;
17570;SDS011;8903;52.220;20.978;2023-03-31T07:32:40;35.03;;;20.83;;
17570;SDS011;8903;52.220;20.978;2023-03-31T07:35:08;23.20;;;17.67;;
17570;SDS011;8903;52.220;20.978;2023-03-31T07:37:36;29.63;;;20.87;;
17570;SDS011;8903;52.220;20.978;2023-03-31T07:40:05;40.40;;;21.70;;
17570;SDS011;8903;52.220;20.978;2023-03-31T07:42:33;29.67;;;20.10;;
17570;SDS011;8903;52.220;20.978;2023-03-31T07:45:00;24.07;;;20.90;;
17570;SDS011;8903;52.220;20.978;2023-03-31T07:47:31;31.83;;;22.03;;
17570;SDS011;8903;52.220;20.978;2023-03-31T07:49:58;28.17;;;20.50;;
17570;SDS011;8903;52.220;20.978;2023-03-31T07:52:25;25.80;;;20.10;;
17570;SDS011;8903;52.220;20.978;2023-03-31T07:54:52;24.30;;;19.73;;
17570;SDS011;8903;52.220;20.978;2023-03-31T07:57:19;22.00;;;17.90;;
17570;SDS011;8903;52.220;20.978;2023-03-31T07:59:46;21.87;;;18.17;;
17570;SDS011;8903;52.220;20.978;2023-03-31T08:02:14;24.70;;;17.70;;
17570;SDS011;8903;52.220;20.978;2023-03-31T08:04:44;22.57;;;17.60;;
17570;SDS011;8903;52.220;20.978;2023-03-31T08:07:12;21.47;;;16.57;;
17570;SDS011;8903;52.220;20.978;2023-03-31T08:09:41;19.73;;;15.27;;
17570;SDS011;8903;52.220;20.978;2023-03-31T08:12:09;23.90;;;16.63;;
17570;SDS011;8903;52.220;20.978;2023-03-31T08:14:37;20.70;;;16.37;;
17570;SDS011;8903;52.220;20.978;2023-03-31T08:17:04;17.23;;;14.40;;
17570;SDS011;8903;52.220;20.978;2023-03-31T08:19:31;18.60;;;14.80;;
17570;SDS011;8903;52.220;20.978;2023-03-31T08:21:59;17.90;;;14.40;;
17570;SDS011;8903;52.220;20.978;2023-03-31T08:24:26;19.17;;;15.67;;
17570;SDS011;8903;52.220;20.978;2023-03-31T08:26:53;20.37;;;15.50;;
17570;SDS011;8903;52.220;20.978;2023-03-31T08:29:20;21.60;;;15.40;;
17570;SDS011;8903;52.220;20.978;2023-03-31T08:31:47;17.97;;;15.40;;
17570;SDS011;8903;52.220;20.978;2023-03-31T08:34:14;18.60;;;15.70;;
17570;SDS011;8903;52.220;20.978;2023-03-31T08:36:41;21.10;;;16.47;;
17570;SDS011;8903;52.220;20.978;2023-03-31T08:39:10;18.90;;;16.00;;
17570;SDS011;8903;52.220;20.978;2023-03-31T08:41:40;18.73;;;14.20;;
17570;SDS011;8903;52.220;20.978;2023-03-31T08:44:15;15.50;;;13.60;;
17570;SDS011;8903;52.220;20.978;2023-03-31T08:46:45;14.83;;;12.00;;
17570;SDS011;8903;52.220;20.978;2023-03-31T08:49:13;15.10;;;12.93;;
17570;SDS011;8903;52.220;20.978;2023-03-31T08:51:45;16.83;;;12.50;;
17570;SDS011;8903;52.220;20.978;2023-03-31T08:54:18;15.70;;;11.97;;
17570;SDS011;8903;52.220;20.978;2023-03-31T08:56:51;15.70;;;10.93;;
17570;SDS011;8903;52.220;20.978;2023-03-31T08:59:25;17.20;;;10.70;;
17570;SDS011;8903;52.220;20.978;2023-03-31T09:01:56;13.60;;;10.70;;
17570;SDS011;8903;52.220;20.978;2023-03-31T09:04:40;13.30;;;11.50;;
17570;SDS011;8903;52.220;20.978;2023-03-31T09:07:18;16.53;;;12.00;;
17570;SDS011;8903;52.220;20.978;2023-03-31T09:09:56;13.30;;;10.53;;
17570;SDS011;8903;52.220;20.978;2023-03-31T09:12:33;14.53;;;11.70;;
17570;SDS011;8903;52.220;20.978;2023-03-31T09:15:11;12.43;;;11.07;;
17570;SDS011;8903;52.220;20.978;2023-03-31T09:17:45;18.33;;;10.47;;
17570;SDS011;8903;52.220;20.978;2023-03-31T09:20:16;13.83;;;11.07;;
17570;SDS011;8903;52.220;20.978;2023-03-31T09:22:47;11.43;;;9.80;;
17570;SDS011;8903;52.220;20.978;2023-03-31T09:25:19;14.10;;;9.73;;
17570;SDS011;8903;52.220;20.978;2023-03-31T09:27:50;14.50;;;11.53;;
17570;SDS011;8903;52.220;20.978;2023-03-31T09:30:23;13.20;;;9.40;;
17570;SDS011;8903;52.220;20.978;2023-03-31T09:32:53;13.77;;;8.90;;
17570;SDS011;8903;52.220;20.978;2023-03-31T09:35:35;10.30;;;7.40;;
17570;SDS011;8903;52.220;20.978;2023-03-31T09:38:02;8.30;;;7.47;;
17570;SDS011;8903;52.220;20.978;2023-03-31T09:40:31;15.27;;;8.20;;
17570;SDS011;8903;52.220;20.978;2023-03-31T09:43:00;9.60;;;8.33;;
17570;SDS011;8903;52.220;20.978;2023-03-31T09:45:29;9.47;;;7.70;;
17570;SDS011;8903;52.220;20.978;2023-03-31T09:47:59;10.67;;;7.60;;
17570;SDS011;8903;52.220;20.978;2023-03-31T09:50:28;13.43;;;8.73;;
17570;SDS011;8903;52.220;20.978;2023-03-31T09:52:56;14.93;;;8.60;;
17570;SDS011;8903;52.220;20.978;2023-03-31T09:55:25;7.87;;;7.20;;
17570;SDS011;8903;52.220;20.978;2023-03-31T09:58:02;15.13;;;8.37;;
17570;SDS011;8903;52.220;20.978;2023-03-31T10:00:32;9.73;;;7.20;;
17570;SDS011;8903;52.220;20.978;2023-03-31T10:03:00;8.67;;;7.00;;
17570;SDS011;8903;52.220;20.978;2023-03-31T10:05:32;9.37;;;7.13;;
17570;SDS011;8903;52.220;20.978;2023-03-31T10:08:19;9.30;;;6.33;;
17570;SDS011;8903;52.220;20.978;2023-03-31T10:10:50;13.07;;;6.27;;
17570;SDS011;8903;52.220;20.978;2023-03-31T10:13:21;7.87;;;6.00;;
17570;SDS011;8903;52.220;20.978;2023-03-31T10:15:52;11.33;;;6.87;;
17570;SDS011;8903;52.220;20.978;2023-03-31T10:18:22;14.97;;;6.40;;
17570;SDS011;8903;52.220;20.978;2023-03-31T10:20:59;28.10;;;7.83;;
17570;SDS011;8903;52.220;20.978;2023-03-31T10:23:30;10.43;;;6.33;;
17570;SDS011;8903;52.220;20.978;2023-03-31T10:25:59;9.70;;;5.80;;
17570;SDS011;8903;52.220;20.978;2023-03-31T10:28:30;9.53;;;4.87;;
17570;SDS011;8903;52.220;20.978;2023-03-31T10:30:59;6.50;;;3.73;;
17570;SDS011;8903;52.220;20.978;2023-03-31T10:33:27;8.30;;;4.43;;
17570;SDS011;8903;52.220;20.978;2023-03-31T10:35:59;4.80;;;3.70;;
17570;SDS011;8903;52.220;20.978;2023-03-31T10:38:28;6.90;;;4.53;;
17570;SDS011;8903;52.220;20.978;2023-03-31T10:40:58;12.93;;;4.67;;
17570;SDS011;8903;52.220;20.978;2023-03-31T10:43:27;8.60;;;3.63;;
17570;SDS011;8903;52.220;20.978;2023-03-31T10:45:57;11.03;;;4.80;;
17570;SDS011;8903;52.220;20.978;2023-03-31T10:48:26;20.03;;;5.10;;
17570;SDS011;8903;52.220;20.978;2023-03-31T10:50:57;12.13;;;4.87;;
17570;SDS011;8903;52.220;20.978;2023-03-31T10:53:25;7.40;;;4.73;;
17570;SDS011;8903;52.220;20.978;2023-03-31T10:56:01;30.27;;;6.63;;
17570;SDS011;8903;52.220;20.978;2023-03-31T10:58:42;22.53;;;6.40;;
17570;SDS011;8903;52.220;20.978;2023-03-31T11:01:35;24.47;;;6.00;;
17570;SDS011;8903;52.220;20.978;2023-03-31T11:04:20;34.87;;;6.97;;
17570;SDS011;8903;52.220;20.978;2023-03-31T11:07:27;10.00;;;3.70;;
17570;SDS011;8903;52.220;20.978;2023-03-31T11:10:10;7.90;;;4.30;;
17570;SDS011;8903;52.220;20.978;2023-03-31T11:12:50;9.17;;;3.63;;
17570;SDS011;8903;52.220;20.978;2023-03-31T11:15:21;12.70;;;4.40;;
17570;SDS011;8903;52.220;20.978;2023-03-31T11:18:05;10.57;;;4.40;;
17570;SDS011;8903;52.220;20.978;2023-03-31T11:20:49;9.20;;;4.27;;
17570;SDS011;8903;52.220;20.978;2023-03-31T11:23:23;8.40;;;4.10;;
17570;SDS011;8903;52.220;20.978;2023-03-31T11:25:57;7.73;;;4.60;;
17570;SDS011;8903;52.220;20.978;2023-03-31T11:28:38;15.27;;;5.07;;
17570;SDS011;8903;52.220;20.978;2023-03-31T11:31:24;12.90;;;4.30;;
17570;SDS011;8903;52.220;20.978;2023-03-31T11:34:05;12.77;;;4.50;;
17570;SDS011;8903;52.220;20.978;2023-03-31T11:36:47;11.73;;;6.40;;
17570;SDS011;8903;52.220;20.978;2023-03-31T11:39:34;8.47;;;3.90;;
17570;SDS011;8903;52.220;20.978;2023-03-31T11:42:12;8.13;;;3.67;;
17570;SDS011;8903;52.220;20.978;2023-03-31T11:44:43;6.13;;;4.57;;
17570;SDS011;8903;52.220;20.978;2023-03-31T11:47:18;8.50;;;5.33;;
17570;SDS011;8903;52.220;20.978;2023-03-31T11:49:50;7.53;;;5.93;;
17570;SDS011;8903;52.220;20.978;2023-03-31T11:52:21;7.10;;;4.53;;
17570;SDS011;8903;52.220;20.978;2023-03-31T11:54:55;5.30;;;3.93;;
17570;SDS011;8903;52.220;20.978;2023-03-31T11:57:27;11.57;;;4.97;;
17570;SDS011;8903;52.220;20.978;2023-03-31T11:59:57;7.03;;;4.20;;
17570;SDS011;8903;52.220;20.978;2023-03-31T12:02:38;9.10;;;6.10;;
17570;SDS011;8903;52.220;20.978;2023-03-31T12:05:12;8.50;;;5.37;;
17570;SDS011;8903;52.220;20.978;2023-03-31T12:07:42;15.07;;;4.80;;
17570;SDS011;8903;52.220;20.978;2023-03-31T12:10:16;8.47;;;5.73;;
17570;SDS011;8903;52.220;20.978;2023-03-31T12:12:46;5.97;;;5.27;;
17570;SDS011;8903;52.220;20.978;2023-03-31T12:15:20;8.83;;;4.77;;
17570;SDS011;8903;52.220;20.978;2023-03-31T12:17:52;11.27;;;5.37;;
17570;SDS011;8903;52.220;20.978;2023-03-31T12:20:27;7.63;;;4.83;;
17570;SDS011;8903;52.220;20.978;2023-03-31T12:22:58;10.93;;;5.03;;
17570;SDS011;8903;52.220;20.978;2023-03-31T12:25:29;8.60;;;4.57;;
17570;SDS011;8903;52.220;20.978;2023-03-31T12:28:05;9.70;;;5.23;;
17570;SDS011;8903;52.220;20.978;2023-03-31T12:30:33;8.47;;;3.83;;
17570;SDS011;8903;52.220;20.978;2023-03-31T12:33:08;12.07;;;4.40;;
17570;SDS011;8903;52.220;20.978;2023-03-31T12:35:44;7.47;;;4.10;;
17570;SDS011;8903;52.220;20.978;2023-03-31T12:38:28;7.50;;;4.40;;
17570;SDS011;8903;52.220;20.978;2023-03-31T12:41:07;5.37;;;3.97;;
17570;SDS011;8903;52.220;20.978;2023-03-31T12:43:50;9.30;;;4.30;;
17570;SDS011;8903;52.220;20.978;2023-03-31T12:49:31;9.63;;;3.90;;
17570;SDS011;8903;52.220;20.978;2023-03-31T12:52:10;9.20;;;4.30;;
17570;SDS011;8903;52.220;20.978;2023-03-31T12:57:46;11.97;;;4.10;;
17570;SDS011;8903;52.220;20.978;2023-03-31T13:00:18;8.83;;;4.00;;
17570;SDS011;8903;52.220;20.978;2023-03-31T13:02:50;6.40;;;4.63;;
17570;SDS011;8903;52.220;20.978;2023-03-31T13:05:46;5.90;;;4.17;;
17570;SDS011;8903;52.220;20.978;2023-03-31T13:11:15;7.87;;;5.10;;
17570;SDS011;8903;52.220;20.978;2023-03-31T13:13:44;5.67;;;4.30;;
17570;SDS011;8903;52.220;20.978;2023-03-31T13:16:24;8.60;;;4.27;;
17570;SDS011;8903;52.220;20.978;2023-03-31T13:18:52;6.60;;;4.10;;
17570;SDS011;8903;52.220;20.978;2023-03-31T13:21:20;6.73;;;4.23;;
17570;SDS011;8903;52.220;20.978;2023-03-31T13:23:48;5.37;;;4.03;;
17570;SDS011;8903;52.220;20.978;2023-03-31T13:26:36;5.50;;;4.00;;
17570;SDS011;8903;52.220;20.978;2023-03-31T13:29:21;6.73;;;3.83;;
17570;SDS011;8903;52.220;20.978;2023-03-31T13:32:06;6.63;;;3.87;;
17570;SDS011;8903;52.220;20.978;2023-03-31T13:34:51;7.93;;;4.50;;
17570;SDS011;8903;52.220;20.978;2023-03-31T13:37:35;5.30;;;3.60;;
17570;SDS011;8903;52.220;20.978;2023-03-31T13:40:20;6.70;;;3.37;;
17570;SDS011;8903;52.220;20.978;2023-03-31T13:46:18;4.90;;;3.43;;
17570;SDS011;8903;52.220;20.978;2023-03-31T13:49:10;5.50;;;3.10;;
17570;SDS011;8903;52.220;20.978;2023-03-31T13:52:12;4.63;;;2.60;;
17570;SDS011;8903;52.220;20.978;2023-03-31T13:54:56;7.23;;;3.30;;
17570;SDS011;8903;52.220;20.978;2023-03-31T14:00:41;7.87;;;2.83;;
17570;SDS011;8903;52.220;20.978;2023-03-31T14:06:17;8.70;;;3.37;;
17570;SDS011;8903;52.220;20.978;2023-03-31T14:08:49;6.27;;;3.83;;
17570;SDS011;8903;52.220;20.978;2023-03-31T14:11:21;5.57;;;2.90;;
17570;SDS011;8903;52.220;20.978;2023-03-31T14:13:59;6.87;;;2.80;;
17570;SDS011;8903;52.220;20.978;2023-03-31T14:16:27;6.57;;;2.97;;
17570;SDS011;8903;52.220;20.978;2023-03-31T14:19:00;4.80;;;2.80;;
17570;SDS011;8903;52.220;20.978;2023-03-31T14:21:47;4.40;;;3.20;;
17570;SDS011;8903;52.220;20.978;2023-03-31T14:24:22;6.13;;;3.30;;
17570;SDS011;8903;52.220;20.978;2023-03-31T14:26:57;6.27;;;3.80;;
17570;SDS011;8903;52.220;20.978;2023-03-31T14:29:33;8.83;;;3.07;;
17570;SDS011;8903;52.220;20.978;2023-03-31T14:32:09;13.47;;;2.90;;
17570;SDS011;8903;52.220;20.978;2023-03-31T14:34:51;6.37;;;3.40;;
17570;SDS011;8903;52.220;20.978;2023-03-31T14:37:27;8.10;;;3.70;;
17570;SDS011;8903;52.220;20.978;2023-03-31T14:39:55;6.70;;;2.93;;
17570;SDS011;8903;52.220;20.978;2023-03-31T14:42:24;5.10;;;3.40;;
17570;SDS011;8903;52.220;20.978;2023-03-31T14:44:55;6.47;;;3.23;;
17570;SDS011;8903;52.220;20.978;2023-03-31T14:47:23;6.17;;;4.07;;
17570;SDS011;8903;52.220;20.978;2023-03-31T14:50:00;7.67;;;3.70;;
17570;SDS011;8903;52.220;20.978;2023-03-31T14:52:31;5.50;;;3.20;;
17570;SDS011;8903;52.220;20.978;2023-03-31T14:54:59;5.53;;;3.10;;
17570;SDS011;8903;52.220;20.978;2023-03-31T14:57:27;5.80;;;3.40;;
17570;SDS011;8903;52.220;20.978;2023-03-31T14:59:58;6.20;;;3.30;;
17570;SDS011;8903;52.220;20.978;2023-03-31T15:02:30;5.37;;;3.40;;
17570;SDS011;8903;52.220;20.978;2023-03-31T15:05:02;8.10;;;3.60;;
17570;SDS011;8903;52.220;20.978;2023-03-31T15:07:31;8.53;;;3.30;;
17570;SDS011;8903;52.220;20.978;2023-03-31T15:09:59;5.57;;;3.10;;
17570;SDS011;8903;52.220;20.978;2023-03-31T15:12:26;7.73;;;4.00;;
17570;SDS011;8903;52.220;20.978;2023-03-31T15:14:55;5.80;;;3.43;;
17570;SDS011;8903;52.220;20.978;2023-03-31T15:17:28;5.20;;;3.60;;
17570;SDS011;8903;52.220;20.978;2023-03-31T15:19:57;4.80;;;2.60;;
17570;SDS011;8903;52.220;20.978;2023-03-31T15:22:27;5.13;;;3.43;;
17570;SDS011;8903;52.220;20.978;2023-03-31T15:24:55;5.03;;;3.47;;
17570;SDS011;8903;52.220;20.978;2023-03-31T15:27:29;6.00;;;4.10;;